Valledupar, Valledupar Alfonso Lopez Pumarejo Airport (SKVP)

NameValledupar Alfonso Lopez Pumarejo Airport
CityValledupar
CountryColombia
ICAOSKVP
IATAVUP
Altitude139 m
CoordinatesGoogle Map
Live Air TrafficLiveATC.net
METARSKVP 170400Z 00000KT 3000 BR SCT008 SCT080 25/24 A2995
2019-09-17 04:00:00 Wind: North (0°) 0 m/s - Visibility: 3000 m - Weather: Mist - Temperature: 25 °C - Dew point: 24 °C - Humidity: 94.2% - Pressure: 1014.22 hPa
Statistics

The table below shows the detailed information of all flights to/from Valledupar, Valledupar Alfonso Lopez Pumarejo Airport (SKVP).

Ident Aircraft Coming fromFrom Going toTo Owner nameOwnerDate
CC-COY - A319 - LATAM Colombia ARE4173 AIRBUS A-319 A319 Valledupar, Colombia (SKVP) SKVP
645 km
Bogota, Colombia (SKBO) SKBO M-one Wisteria Lease Co., Ltd. M-one Wisteria Lease Co., Ltd. Wed, 04 Sep 2019 18:08:56 +0000 4/9/2019 6:08 pm
N416AV - A320 - Avianca AVA8594 AIRBUS A-320 A320 Bogota, Colombia (SKBO) SKBO Valledupar, Colombia (SKVP) SKVP
645 km
Avianca Avianca Tue, 13 Aug 2019 14:01:21 +0000 13/8/2019 2:01 pm
N401AV - A320 - Avianca AVA8594 AIRBUS A-320 A320 Bogota, Colombia (SKBO) SKBO
379 km
Valledupar, Colombia (SKVP) SKVP
266 km
Avianca Avianca Sun, 11 Aug 2019 14:49:51 +0000 11/8/2019 2:49 pm
CC-BAS - A320 - LATAM Colombia ARE4172 AIRBUS A-320 A320 Bogota, Colombia (SKBO) SKBO
1 km
Valledupar, Colombia (SKVP) SKVP
644 km
Tiuque Leasing Limited Tiuque Leasing Limited Sat, 03 Aug 2019 11:25:48 +0000 3/8/2019 11:25 am